createdAt,value
2022-12-11T08:29:04.659Z,98585.50
2022-12-11T08:34:06.718Z,98601.81
2022-12-11T08:39:08.738Z,98611.94
2022-12-11T08:44:16.632Z,98597.50
2022-12-11T08:49:19.193Z,98613.22
2022-12-11T08:54:21.186Z,98638.44
2022-12-11T08:59:23.643Z,98625.06
2022-12-11T09:04:25.669Z,98637.37
2022-12-11T09:09:27.714Z,98648.44
2022-12-11T09:14:29.735Z,98644.59
2022-12-11T09:19:32.490Z,98652.28
2022-12-11T09:24:34.707Z,98658.31
2022-12-11T09:29:36.815Z,98654.34
2022-12-11T09:34:38.813Z,98644.13
2022-12-11T09:39:40.854Z,98660.25
2022-12-11T09:44:43.334Z,98655.28
2022-12-11T09:49:49.211Z,98655.72
2022-12-11T09:54:57.269Z,98661.81
2022-12-11T10:00:11.871Z,98662.47
2022-12-11T10:05:28.956Z,98652.91
2022-12-11T10:10:43.678Z,98653.72
2022-12-11T10:16:01.179Z,98630.69
2022-12-11T10:21:04.102Z,98620.44
2022-12-11T10:26:17.866Z,98642.16
2022-12-11T10:31:29.957Z,98656.59
2022-12-11T10:36:37.206Z,98668.91
2022-12-11T10:41:42.174Z,98678.25
2022-12-11T10:46:45.573Z,98648.03
2022-12-11T10:51:47.709Z,98674.75
2022-12-11T10:56:49.842Z,98679.81
2022-12-11T11:01:52.064Z,98693.31
2022-12-11T11:07:14.383Z,98697.09
2022-12-11T11:12:24.342Z,98687.69
2022-12-11T11:17:29.571Z,98707.59
2022-12-11T11:22:42.016Z,98682.03
2022-12-11T11:27:49.094Z,98672.34
2022-12-11T11:33:02.920Z,98683.09
2022-12-11T11:38:18.910Z,98673.22
2022-12-11T11:43:56.355Z,98696.66
2022-12-11T11:49:04.103Z,98713.75
2022-12-11T11:54:21.148Z,98713.66
2022-12-11T11:59:31.124Z,98727.84
2022-12-11T12:04:35.280Z,98728.66
2022-12-11T12:09:43.606Z,98735.87
2022-12-11T12:15:06.384Z,98740.53
2022-12-11T12:20:08.515Z,98741.56
2022-12-11T12:25:36.787Z,98751.81
2022-12-11T12:30:53.421Z,98752.63
2022-12-11T12:36:07.104Z,98746.59
2022-12-11T12:41:27.815Z,98749.94
2022-12-11T12:46:34.216Z,98744.72
2022-12-11T12:51:38.071Z,98747.75
2022-12-11T12:56:43.582Z,98760.47
2022-12-11T13:01:55.213Z,98761.41
2022-12-11T13:06:57.512Z,98780.13
2022-12-11T13:11:59.550Z,98802.31
2022-12-11T13:17:26.498Z,98804.91
2022-12-11T13:22:28.618Z,98818.97
2022-12-11T13:27:43.635Z,98821.41
2022-12-11T13:33:07.585Z,98829.47
2022-12-11T13:38:21.091Z,98817.47
2022-12-11T13:43:27.127Z,98824.72
2022-12-11T13:48:35.098Z,98822.97
2022-12-11T13:53:37.362Z,98846.16
2022-12-11T13:58:40.050Z,98836.94
2022-12-11T14:03:55.487Z,98837.19
2022-12-11T14:09:00.578Z,98863.50
2022-12-11T14:14:06.745Z,98854.41
2022-12-11T14:19:09.842Z,98875.91
2022-12-11T14:24:14.209Z,98876.28
2022-12-11T14:29:26.531Z,98893.41
2022-12-11T14:34:35.455Z,98899.19
2022-12-11T14:39:47.668Z,98920.84
2022-12-11T14:45:08.063Z,98921.88
2022-12-11T14:50:34.627Z,98922.81
2022-12-11T14:55:39.415Z,98921.44
2022-12-11T15:00:41.463Z,98931.66
2022-12-11T15:05:55.330Z,98930.16
2022-12-11T15:11:11.219Z,98918.16
2022-12-11T15:16:14.563Z,98936.06
2022-12-11T15:21:17.241Z,98949.19
2022-12-11T15:26:21.256Z,98948.50
2022-12-11T15:31:41.419Z,98941.03
2022-12-11T15:36:43.461Z,98944.97
2022-12-11T15:41:45.522Z,98968.81
2022-12-11T15:46:47.646Z,98949.25
2022-12-11T15:51:49.682Z,98961.72
2022-12-11T15:56:51.759Z,98956.84
2022-12-11T16:01:53.842Z,98957.87
2022-12-11T16:06:56.312Z,98975.62
2022-12-11T16:11:58.329Z,98972.81
2022-12-11T16:17:00.377Z,98978.41
2022-12-11T16:22:02.629Z,98983.22
2022-12-11T16:27:06.030Z,98994.16
2022-12-11T16:32:08.697Z,98984.00
2022-12-11T16:37:11.114Z,98999.50
2022-12-11T16:42:13.193Z,99004.84
2022-12-11T16:47:15.229Z,99001.59
2022-12-11T16:52:21.999Z,99021.91
2022-12-11T16:57:24.810Z,99006.41
2022-12-11T17:02:26.935Z,99003.66
2022-12-11T17:07:29.071Z,99018.81
2022-12-11T17:12:31.125Z,99010.53
2022-12-11T17:17:33.310Z,99015.34
2022-12-11T17:22:35.755Z,98997.84
2022-12-11T17:27:38.030Z,99011.69
2022-12-11T17:32:40.142Z,98997.84
2022-12-11T17:37:42.171Z,99020.91
2022-12-11T17:42:44.957Z,99016.28
2022-12-11T17:47:47.030Z,99019.28
2022-12-11T17:52:49.072Z,99027.56
2022-12-11T17:57:51.340Z,99030.47
2022-12-11T18:02:53.388Z,99031.16
2022-12-11T18:07:57.928Z,99023.13
2022-12-11T18:13:00.992Z,99018.72
2022-12-11T18:18:04.304Z,99020.59
2022-12-11T18:23:06.728Z,99033.69
2022-12-11T18:28:08.790Z,99029.66
2022-12-11T18:33:11.096Z,99045.63
2022-12-11T18:38:13.235Z,99053.63
2022-12-11T18:43:15.293Z,99043.22
2022-12-11T18:48:17.386Z,99046.13
2022-12-11T18:53:19.847Z,99061.03
2022-12-11T18:58:22.037Z,99077.28
2022-12-11T19:03:24.120Z,99064.59
2022-12-11T19:08:26.545Z,99079.78
2022-12-11T19:13:28.675Z,99080.25
2022-12-11T19:18:30.783Z,99099.16
2022-12-11T19:23:32.885Z,99069.91
2022-12-11T19:28:35.071Z,99094.31
2022-12-11T19:33:38.187Z,99077.72
2022-12-11T19:38:42.399Z,99089.62
2022-12-11T19:43:45.433Z,99089.16
2022-12-11T19:48:52.034Z,99085.97
2022-12-11T19:53:54.567Z,99082.09
2022-12-11T19:58:56.930Z,99079.88
2022-12-11T20:04:01.569Z,99089.13
2022-12-11T20:09:06.100Z,99114.94
2022-12-11T20:14:08.970Z,99104.72
2022-12-11T20:19:11.051Z,99096.09
2022-12-11T20:24:13.139Z,99109.84
2022-12-11T20:29:16.259Z,99110.53
2022-12-11T20:34:18.955Z,99124.84
2022-12-11T20:39:21.010Z,99122.41
2022-12-11T20:44:23.105Z,99122.63
2022-12-11T20:49:25.436Z,99125.34
2022-12-11T20:54:27.593Z,99121.09
2022-12-11T20:59:29.708Z,99117.50
2022-12-11T21:04:32.336Z,99136.31
